Harelbeke, Belgium
Current Conditions -  °F | °C
As of 3:30 AM on Saturday 25 Oct 2014 (Local Time) from LFQQ Reporting Station
Overcast Overcast  
Wind Chill: 54°   Ceiling: 900
Heat Index: 54°   Visibility: 6mi
Dew Point: 52°   Wind: 8mph
Humidity: 94%   Direction: 200°SSW
Pressure: 30.03"   Gusts: NA
Location:  50.85°N, 3.31°E
Report Text: LFQQ 250130Z AUTO 20007KT 9999 OVC009 12/11 Q1017
Loading
Personal Weather Stations






























Interactive Weather Map
Tropical Storm Tracking
New forecast layout! Learn more

10-Day Weather Forecast

Advertisements
Track Severe Weather on mobile